Muelle Paraguana, Venezuela
Current Conditions -  °F | °C
As of 9:00 PM on Tuesday 21 Oct 2014 (Local Time) from TNCA Reporting Station
Few Clouds Few Clouds  
Wind Chill: 82°   Ceiling: Unl
Heat Index: 91°   Visibility: 6mi
Dew Point: 77°   Wind: 13mph
Humidity: 84%   Direction: 70°ENE
Pressure: 29.83"   Gusts: NA
Location:  11.78°N, 70.15°W
Report Text: TNCA 220100Z 07011KT 9999 FEW018 28/25 Q1010 A2984 NOSIG
Loading
Personal Weather Stations






























Interactive Weather Map
Tropical Storm Tracking
New forecast layout! Learn more

10-Day Weather Forecast

Advertisements
Track Severe Weather on mobile